sensor_id;sensor_type;location;lat;lon;timestamp;P1;durP1;ratioP1;P2;durP2;ratioP2
27925;SDS011;15267;47.838;12.128;2023-04-24T00:00:13;3.25;;;0.82;;
27925;SDS011;15267;47.838;12.128;2023-04-24T00:02:39;1.88;;;0.90;;
27925;SDS011;15267;47.838;12.128;2023-04-24T00:05:06;2.75;;;1.00;;
27925;SDS011;15267;47.838;12.128;2023-04-24T00:07:32;1.35;;;0.90;;
27925;SDS011;15267;47.838;12.128;2023-04-24T00:09:58;1.30;;;0.80;;
27925;SDS011;15267;47.838;12.128;2023-04-24T00:12:24;1.75;;;0.93;;
27925;SDS011;15267;47.838;12.128;2023-04-24T00:14:51;2.50;;;0.90;;
27925;SDS011;15267;47.838;12.128;2023-04-24T00:17:17;2.00;;;0.93;;
27925;SDS011;15267;47.838;12.128;2023-04-24T00:19:45;2.20;;;0.88;;
27925;SDS011;15267;47.838;12.128;2023-04-24T00:22:11;2.05;;;0.80;;
27925;SDS011;15267;47.838;12.128;2023-04-24T00:24:40;2.22;;;0.80;;
27925;SDS011;15267;47.838;12.128;2023-04-24T00:27:06;2.15;;;0.98;;
27925;SDS011;15267;47.838;12.128;2023-04-24T00:29:32;1.83;;;0.80;;
27925;SDS011;15267;47.838;12.128;2023-04-24T00:31:58;1.92;;;0.85;;
27925;SDS011;15267;47.838;12.128;2023-04-24T00:34:24;2.35;;;0.73;;
27925;SDS011;15267;47.838;12.128;2023-04-24T00:36:50;3.65;;;0.80;;
27925;SDS011;15267;47.838;12.128;2023-04-24T00:39:20;1.73;;;0.80;;
27925;SDS011;15267;47.838;12.128;2023-04-24T00:41:46;3.60;;;1.00;;
27925;SDS011;15267;47.838;12.128;2023-04-24T00:44:12;0.88;;;0.60;;
27925;SDS011;15267;47.838;12.128;2023-04-24T00:46:39;2.90;;;0.80;;
27925;SDS011;15267;47.838;12.128;2023-04-24T00:49:05;2.88;;;0.63;;
27925;SDS011;15267;47.838;12.128;2023-04-24T00:51:31;1.10;;;0.70;;
27925;SDS011;15267;47.838;12.128;2023-04-24T00:53:57;1.00;;;0.55;;
27925;SDS011;15267;47.838;12.128;2023-04-24T00:56:23;0.77;;;0.70;;
27925;SDS011;15267;47.838;12.128;2023-04-24T00:58:49;2.92;;;0.80;;
27925;SDS011;15267;47.838;12.128;2023-04-24T01:01:15;2.42;;;0.70;;
27925;SDS011;15267;47.838;12.128;2023-04-24T01:03:42;0.73;;;0.63;;
27925;SDS011;15267;47.838;12.128;2023-04-24T01:06:08;1.10;;;0.70;;
27925;SDS011;15267;47.838;12.128;2023-04-24T01:08:35;1.38;;;0.70;;
27925;SDS011;15267;47.838;12.128;2023-04-24T01:11:01;2.15;;;0.80;;
27925;SDS011;15267;47.838;12.128;2023-04-24T01:13:28;1.42;;;0.80;;
27925;SDS011;15267;47.838;12.128;2023-04-24T01:15:54;2.60;;;0.82;;
27925;SDS011;15267;47.838;12.128;2023-04-24T01:18:20;2.05;;;0.80;;
27925;SDS011;15267;47.838;12.128;2023-04-24T01:20:46;2.25;;;0.75;;
27925;SDS011;15267;47.838;12.128;2023-04-24T01:23:16;1.58;;;0.80;;
27925;SDS011;15267;47.838;12.128;2023-04-24T01:25:42;1.85;;;0.80;;
27925;SDS011;15267;47.838;12.128;2023-04-24T01:28:08;0.82;;;0.60;;
27925;SDS011;15267;47.838;12.128;2023-04-24T01:30:34;2.63;;;0.70;;
27925;SDS011;15267;47.838;12.128;2023-04-24T01:33:00;1.08;;;0.85;;
27925;SDS011;15267;47.838;12.128;2023-04-24T01:35:27;2.33;;;1.23;;
27925;SDS011;15267;47.838;12.128;2023-04-24T01:37:53;1.15;;;0.80;;
27925;SDS011;15267;47.838;12.128;2023-04-24T01:40:19;2.35;;;0.95;;
27925;SDS011;15267;47.838;12.128;2023-04-24T01:42:45;0.88;;;0.80;;
27925;SDS011;15267;47.838;12.128;2023-04-24T01:45:11;1.60;;;1.00;;
27925;SDS011;15267;47.838;12.128;2023-04-24T01:47:40;2.60;;;0.88;;
27925;SDS011;15267;47.838;12.128;2023-04-24T01:50:07;3.83;;;0.80;;
27925;SDS011;15267;47.838;12.128;2023-04-24T01:52:33;1.50;;;1.00;;
27925;SDS011;15267;47.838;12.128;2023-04-24T01:55:00;3.75;;;0.90;;
27925;SDS011;15267;47.838;12.128;2023-04-24T01:57:27;1.25;;;0.80;;
27925;SDS011;15267;47.838;12.128;2023-04-24T01:59:55;0.93;;;0.70;;
27925;SDS011;15267;47.838;12.128;2023-04-24T02:02:21;1.90;;;0.80;;
27925;SDS011;15267;47.838;12.128;2023-04-24T02:04:48;0.90;;;0.80;;
27925;SDS011;15267;47.838;12.128;2023-04-24T02:07:14;2.75;;;0.80;;
27925;SDS011;15267;47.838;12.128;2023-04-24T02:09:40;1.67;;;0.90;;
27925;SDS011;15267;47.838;12.128;2023-04-24T02:12:06;2.35;;;0.77;;
27925;SDS011;15267;47.838;12.128;2023-04-24T02:14:32;2.40;;;1.08;;
27925;SDS011;15267;47.838;12.128;2023-04-24T02:16:59;1.60;;;1.00;;
27925;SDS011;15267;47.838;12.128;2023-04-24T02:19:25;4.13;;;1.08;;
27925;SDS011;15267;47.838;12.128;2023-04-24T02:21:51;2.10;;;1.20;;
27925;SDS011;15267;47.838;12.128;2023-04-24T02:24:17;1.10;;;1.00;;
27925;SDS011;15267;47.838;12.128;2023-04-24T02:26:43;1.00;;;0.90;;
27925;SDS011;15267;47.838;12.128;2023-04-24T02:29:09;3.28;;;1.02;;
27925;SDS011;15267;47.838;12.128;2023-04-24T02:31:35;2.50;;;1.05;;
27925;SDS011;15267;47.838;12.128;2023-04-24T02:34:01;1.27;;;1.08;;
27925;SDS011;15267;47.838;12.128;2023-04-24T02:36:27;2.72;;;0.93;;
27925;SDS011;15267;47.838;12.128;2023-04-24T02:38:53;1.80;;;0.98;;
27925;SDS011;15267;47.838;12.128;2023-04-24T02:41:19;2.80;;;1.00;;
27925;SDS011;15267;47.838;12.128;2023-04-24T02:43:45;1.45;;;0.90;;
27925;SDS011;15267;47.838;12.128;2023-04-24T02:46:11;2.25;;;1.05;;
27925;SDS011;15267;47.838;12.128;2023-04-24T02:48:37;2.05;;;0.88;;
27925;SDS011;15267;47.838;12.128;2023-04-24T02:51:03;1.17;;;0.90;;
27925;SDS011;15267;47.838;12.128;2023-04-24T02:53:32;2.17;;;0.90;;
27925;SDS011;15267;47.838;12.128;2023-04-24T02:55:58;3.20;;;0.80;;
27925;SDS011;15267;47.838;12.128;2023-04-24T02:58:24;0.95;;;0.80;;
27925;SDS011;15267;47.838;12.128;2023-04-24T03:00:53;2.50;;;1.02;;
27925;SDS011;15267;47.838;12.128;2023-04-24T03:03:20;3.20;;;0.90;;
27925;SDS011;15267;47.838;12.128;2023-04-24T03:05:46;2.10;;;0.80;;
27925;SDS011;15267;47.838;12.128;2023-04-24T03:08:12;2.45;;;0.60;;
27925;SDS011;15267;47.838;12.128;2023-04-24T03:10:39;1.20;;;0.70;;
27925;SDS011;15267;47.838;12.128;2023-04-24T03:13:05;1.55;;;0.73;;
27925;SDS011;15267;47.838;12.128;2023-04-24T03:15:31;1.63;;;1.00;;
27925;SDS011;15267;47.838;12.128;2023-04-24T03:17:57;1.27;;;0.80;;
27925;SDS011;15267;47.838;12.128;2023-04-24T03:20:23;2.70;;;0.70;;
27925;SDS011;15267;47.838;12.128;2023-04-24T03:22:49;1.73;;;0.90;;
27925;SDS011;15267;47.838;12.128;2023-04-24T03:25:15;1.10;;;0.70;;
27925;SDS011;15267;47.838;12.128;2023-04-24T03:27:41;1.15;;;0.60;;
27925;SDS011;15267;47.838;12.128;2023-04-24T03:30:07;1.63;;;0.98;;
27925;SDS011;15267;47.838;12.128;2023-04-24T03:32:33;1.30;;;0.70;;
27925;SDS011;15267;47.838;12.128;2023-04-24T03:34:59;2.22;;;0.70;;
27925;SDS011;15267;47.838;12.128;2023-04-24T03:37:25;0.85;;;0.80;;
27925;SDS011;15267;47.838;12.128;2023-04-24T03:39:51;0.90;;;0.70;;
27925;SDS011;15267;47.838;12.128;2023-04-24T03:42:17;3.28;;;0.90;;
27925;SDS011;15267;47.838;12.128;2023-04-24T03:44:43;3.70;;;0.70;;
27925;SDS011;15267;47.838;12.128;2023-04-24T03:47:09;1.30;;;0.70;;
27925;SDS011;15267;47.838;12.128;2023-04-24T03:49:35;1.58;;;0.73;;
27925;SDS011;15267;47.838;12.128;2023-04-24T03:52:01;1.75;;;0.73;;
27925;SDS011;15267;47.838;12.128;2023-04-24T03:54:27;1.20;;;0.57;;
27925;SDS011;15267;47.838;12.128;2023-04-24T03:56:53;1.77;;;0.77;;
27925;SDS011;15267;47.838;12.128;2023-04-24T03:59:19;0.73;;;0.57;;
27925;SDS011;15267;47.838;12.128;2023-04-24T04:01:45;0.90;;;0.70;;
27925;SDS011;15267;47.838;12.128;2023-04-24T04:04:11;2.75;;;0.70;;
27925;SDS011;15267;47.838;12.128;2023-04-24T04:06:37;2.80;;;0.88;;
27925;SDS011;15267;47.838;12.128;2023-04-24T04:09:03;1.13;;;0.63;;
27925;SDS011;15267;47.838;12.128;2023-04-24T04:11:29;1.23;;;0.70;;
27925;SDS011;15267;47.838;12.128;2023-04-24T04:13:55;1.23;;;0.70;;
27925;SDS011;15267;47.838;12.128;2023-04-24T04:16:21;3.53;;;0.90;;
27925;SDS011;15267;47.838;12.128;2023-04-24T04:18:47;2.35;;;0.90;;
27925;SDS011;15267;47.838;12.128;2023-04-24T04:21:13;0.80;;;0.70;;
27925;SDS011;15267;47.838;12.128;2023-04-24T04:23:40;2.55;;;0.93;;
27925;SDS011;15267;47.838;12.128;2023-04-24T04:26:06;1.52;;;0.80;;
27925;SDS011;15267;47.838;12.128;2023-04-24T04:28:33;2.38;;;0.80;;
27925;SDS011;15267;47.838;12.128;2023-04-24T04:30:59;1.15;;;0.60;;
27925;SDS011;15267;47.838;12.128;2023-04-24T04:33:25;0.75;;;0.50;;
27925;SDS011;15267;47.838;12.128;2023-04-24T04:35:51;0.50;;;0.50;;
27925;SDS011;15267;47.838;12.128;2023-04-24T04:38:18;0.43;;;0.40;;
27925;SDS011;15267;47.838;12.128;2023-04-24T04:40:45;2.97;;;0.70;;
27925;SDS011;15267;47.838;12.128;2023-04-24T04:43:11;1.17;;;0.70;;
27925;SDS011;15267;47.838;12.128;2023-04-24T04:45:38;3.97;;;0.77;;
27925;SDS011;15267;47.838;12.128;2023-04-24T04:48:05;1.17;;;0.70;;
27925;SDS011;15267;47.838;12.128;2023-04-24T04:50:32;3.22;;;0.80;;
27925;SDS011;15267;47.838;12.128;2023-04-24T04:52:58;1.55;;;0.75;;
27925;SDS011;15267;47.838;12.128;2023-04-24T04:55:24;2.92;;;0.90;;
27925;SDS011;15267;47.838;12.128;2023-04-24T04:57:50;2.03;;;1.50;;
27925;SDS011;15267;47.838;12.128;2023-04-24T05:00:16;3.33;;;2.47;;
27925;SDS011;15267;47.838;12.128;2023-04-24T05:02:42;5.13;;;2.20;;
27925;SDS011;15267;47.838;12.128;2023-04-24T05:05:09;3.35;;;1.80;;
27925;SDS011;15267;47.838;12.128;2023-04-24T05:07:35;3.05;;;1.52;;
27925;SDS011;15267;47.838;12.128;2023-04-24T05:10:01;2.53;;;1.05;;
27925;SDS011;15267;47.838;12.128;2023-04-24T05:12:27;4.43;;;1.00;;
27925;SDS011;15267;47.838;12.128;2023-04-24T05:14:53;1.35;;;0.88;;
27925;SDS011;15267;47.838;12.128;2023-04-24T05:17:19;1.48;;;0.65;;
27925;SDS011;15267;47.838;12.128;2023-04-24T05:19:45;0.95;;;0.57;;
27925;SDS011;15267;47.838;12.128;2023-04-24T05:22:11;1.83;;;0.38;;
27925;SDS011;15267;47.838;12.128;2023-04-24T05:24:37;0.90;;;0.40;;
27925;SDS011;15267;47.838;12.128;2023-04-24T05:27:03;0.85;;;0.82;;
27925;SDS011;15267;47.838;12.128;2023-04-24T05:29:30;1.38;;;0.80;;
27925;SDS011;15267;47.838;12.128;2023-04-24T05:31:56;1.20;;;0.68;;
27925;SDS011;15267;47.838;12.128;2023-04-24T05:34:22;0.40;;;0.40;;
27925;SDS011;15267;47.838;12.128;2023-04-24T05:36:48;0.38;;;0.38;;
27925;SDS011;15267;47.838;12.128;2023-04-24T05:39:15;1.75;;;0.50;;
27925;SDS011;15267;47.838;12.128;2023-04-24T05:41:41;0.47;;;0.30;;
27925;SDS011;15267;47.838;12.128;2023-04-24T05:44:07;0.38;;;0.38;;
27925;SDS011;15267;47.838;12.128;2023-04-24T05:46:33;0.57;;;0.40;;
27925;SDS011;15267;47.838;12.128;2023-04-24T05:48:59;0.70;;;0.47;;
27925;SDS011;15267;47.838;12.128;2023-04-24T05:51:25;0.45;;;0.30;;
27925;SDS011;15267;47.838;12.128;2023-04-24T05:53:52;2.45;;;0.50;;
27925;SDS011;15267;47.838;12.128;2023-04-24T05:56:18;1.10;;;0.43;;
27925;SDS011;15267;47.838;12.128;2023-04-24T05:58:45;1.10;;;0.50;;
27925;SDS011;15267;47.838;12.128;2023-04-24T06:01:11;0.47;;;0.40;;
27925;SDS011;15267;47.838;12.128;2023-04-24T06:03:38;0.80;;;0.80;;
27925;SDS011;15267;47.838;12.128;2023-04-24T06:06:05;1.88;;;0.73;;
27925;SDS011;15267;47.838;12.128;2023-04-24T06:08:31;1.42;;;0.80;;
27925;SDS011;15267;47.838;12.128;2023-04-24T06:10:57;1.15;;;0.60;;
27925;SDS011;15267;47.838;12.128;2023-04-24T06:13:23;1.45;;;0.40;;
27925;SDS011;15267;47.838;12.128;2023-04-24T06:15:49;0.80;;;0.50;;
27925;SDS011;15267;47.838;12.128;2023-04-24T06:18:16;2.15;;;0.70;;
27925;SDS011;15267;47.838;12.128;2023-04-24T06:20:42;2.28;;;0.60;;
27925;SDS011;15267;47.838;12.128;2023-04-24T06:23:08;3.10;;;0.80;;
27925;SDS011;15267;47.838;12.128;2023-04-24T06:25:34;0.65;;;0.60;;
27925;SDS011;15267;47.838;12.128;2023-04-24T06:28:00;0.82;;;0.50;;
27925;SDS011;15267;47.838;12.128;2023-04-24T06:30:26;0.82;;;0.70;;
27925;SDS011;15267;47.838;12.128;2023-04-24T06:32:53;1.98;;;0.80;;
27925;SDS011;15267;47.838;12.128;2023-04-24T06:35:19;0.73;;;0.65;;
27925;SDS011;15267;47.838;12.128;2023-04-24T06:37:45;2.80;;;0.80;;
27925;SDS011;15267;47.838;12.128;2023-04-24T06:40:11;0.98;;;0.60;;
27925;SDS011;15267;47.838;12.128;2023-04-24T06:42:37;0.75;;;0.50;;
27925;SDS011;15267;47.838;12.128;2023-04-24T06:45:03;0.82;;;0.80;;
27925;SDS011;15267;47.838;12.128;2023-04-24T06:47:30;1.30;;;0.80;;
27925;SDS011;15267;47.838;12.128;2023-04-24T06:49:56;0.65;;;0.60;;
27925;SDS011;15267;47.838;12.128;2023-04-24T06:52:22;0.90;;;0.60;;
27925;SDS011;15267;47.838;12.128;2023-04-24T06:54:48;1.00;;;0.63;;
27925;SDS011;15267;47.838;12.128;2023-04-24T06:57:14;1.00;;;0.57;;
27925;SDS011;15267;47.838;12.128;2023-04-24T06:59:41;2.03;;;0.70;;
27925;SDS011;15267;47.838;12.128;2023-04-24T07:02:07;1.33;;;0.77;;
27925;SDS011;15267;47.838;12.128;2023-04-24T07:04:33;1.95;;;0.70;;
27925;SDS011;15267;47.838;12.128;2023-04-24T07:06:59;2.28;;;0.70;;
27925;SDS011;15267;47.838;12.128;2023-04-24T07:09:26;2.45;;;0.60;;
27925;SDS011;15267;47.838;12.128;2023-04-24T07:11:52;0.90;;;0.68;;
27925;SDS011;15267;47.838;12.128;2023-04-24T07:14:19;0.60;;;0.60;;
27925;SDS011;15267;47.838;12.128;2023-04-24T07:16:45;1.35;;;0.73;;
27925;SDS011;15267;47.838;12.128;2023-04-24T07:19:12;2.42;;;0.80;;
27925;SDS011;15267;47.838;12.128;2023-04-24T07:21:38;1.40;;;0.60;;
27925;SDS011;15267;47.838;12.128;2023-04-24T07:24:04;1.77;;;1.08;;
27925;SDS011;15267;47.838;12.128;2023-04-24T07:26:34;6.80;;;2.10;;
27925;SDS011;15267;47.838;12.128;2023-04-24T07:29:00;3.00;;;1.13;;
27925;SDS011;15267;47.838;12.128;2023-04-24T07:31:26;2.60;;;0.82;;
27925;SDS011;15267;47.838;12.128;2023-04-24T07:33:52;0.95;;;0.60;;
27925;SDS011;15267;47.838;12.128;2023-04-24T07:36:18;1.58;;;0.60;;
27925;SDS011;15267;47.838;12.128;2023-04-24T07:38:47;2.08;;;0.40;;
27925;SDS011;15267;47.838;12.128;2023-04-24T07:41:13;0.73;;;0.50;;
27925;SDS011;15267;47.838;12.128;2023-04-24T07:43:40;0.60;;;0.60;;
27925;SDS011;15267;47.838;12.128;2023-04-24T07:46:06;0.75;;;0.60;;
27925;SDS011;15267;47.838;12.128;2023-04-24T07:48:32;1.17;;;0.70;;
27925;SDS011;15267;47.838;12.128;2023-04-24T07:50:58;1.23;;;0.70;;
27925;SDS011;15267;47.838;12.128;2023-04-24T07:53:24;2.50;;;1.40;;
27925;SDS011;15267;47.838;12.128;2023-04-24T07:55:50;0.98;;;0.90;;
27925;SDS011;15267;47.838;12.128;2023-04-24T07:58:16;0.90;;;0.80;;
27925;SDS011;15267;47.838;12.128;2023-04-24T08:00:42;3.25;;;1.20;;
27925;SDS011;15267;47.838;12.128;2023-04-24T08:03:08;0.93;;;0.60;;
27925;SDS011;15267;47.838;12.128;2023-04-24T08:05:34;2.53;;;0.80;;
27925;SDS011;15267;47.838;12.128;2023-04-24T08:08:00;2.83;;;1.10;;
27925;SDS011;15267;47.838;12.128;2023-04-24T08:10:26;1.40;;;1.20;;
27925;SDS011;15267;47.838;12.128;2023-04-24T08:12:52;3.13;;;2.30;;
27925;SDS011;15267;47.838;12.128;2023-04-24T08:15:18;2.13;;;1.38;;
27925;SDS011;15267;47.838;12.128;2023-04-24T08:17:44;1.38;;;0.93;;
27925;SDS011;15267;47.838;12.128;2023-04-24T08:20:10;1.50;;;1.02;;
27925;SDS011;15267;47.838;12.128;2023-04-24T08:22:40;2.75;;;0.80;;
27925;SDS011;15267;47.838;12.128;2023-04-24T08:25:06;1.60;;;0.68;;
27925;SDS011;15267;47.838;12.128;2023-04-24T08:27:32;1.10;;;0.60;;
27925;SDS011;15267;47.838;12.128;2023-04-24T08:29:58;2.28;;;1.00;;
27925;SDS011;15267;47.838;12.128;2023-04-24T08:32:25;1.73;;;1.00;;
27925;SDS011;15267;47.838;12.128;2023-04-24T08:34:53;1.55;;;0.77;;
27925;SDS011;15267;47.838;12.128;2023-04-24T08:37:21;2.08;;;0.80;;
27925;SDS011;15267;47.838;12.128;2023-04-24T08:39:47;1.83;;;1.08;;
27925;SDS011;15267;47.838;12.128;2023-04-24T08:42:13;2.28;;;0.88;;
27925;SDS011;15267;47.838;12.128;2023-04-24T08:44:40;5.43;;;0.90;;
27925;SDS011;15267;47.838;12.128;2023-04-24T08:47:07;1.10;;;0.80;;
27925;SDS011;15267;47.838;12.128;2023-04-24T08:49:33;3.60;;;0.88;;
27925;SDS011;15267;47.838;12.128;2023-04-24T08:51:59;3.22;;;0.90;;
27925;SDS011;15267;47.838;12.128;2023-04-24T08:54:25;2.05;;;0.90;;
27925;SDS011;15267;47.838;12.128;2023-04-24T08:56:52;0.93;;;0.50;;
27925;SDS011;15267;47.838;12.128;2023-04-24T08:59:19;0.68;;;0.40;;
27925;SDS011;15267;47.838;12.128;2023-04-24T09:01:47;0.70;;;0.50;;
27925;SDS011;15267;47.838;12.128;2023-04-24T09:04:14;0.63;;;0.40;;
27925;SDS011;15267;47.838;12.128;2023-04-24T09:06:41;1.45;;;0.40;;
27925;SDS011;15267;47.838;12.128;2023-04-24T09:09:09;1.15;;;0.30;;
27925;SDS011;15267;47.838;12.128;2023-04-24T09:11:36;0.28;;;0.28;;
27925;SDS011;15267;47.838;12.128;2023-04-24T09:14:02;0.30;;;0.30;;
27925;SDS011;15267;47.838;12.128;2023-04-24T09:16:29;0.20;;;0.20;;
27925;SDS011;15267;47.838;12.128;2023-04-24T09:18:55;0.85;;;0.50;;
27925;SDS011;15267;47.838;12.128;2023-04-24T09:21:22;3.30;;;0.50;;
27925;SDS011;15267;47.838;12.128;2023-04-24T09:23:57;1.17;;;0.70;;
27925;SDS011;15267;47.838;12.128;2023-04-24T09:26:24;0.70;;;0.50;;
27925;SDS011;15267;47.838;12.128;2023-04-24T09:28:50;0.75;;;0.60;;
27925;SDS011;15267;47.838;12.128;2023-04-24T09:31:18;1.20;;;0.60;;
27925;SDS011;15267;47.838;12.128;2023-04-24T09:34:02;1.60;;;0.70;;
27925;SDS011;15267;47.838;12.128;2023-04-24T09:36:31;0.85;;;0.60;;
27925;SDS011;15267;47.838;12.128;2023-04-24T09:39:04;3.97;;;0.70;;
27925;SDS011;15267;47.838;12.128;2023-04-24T09:41:31;1.13;;;0.90;;
27925;SDS011;15267;47.838;12.128;2023-04-24T09:44:09;2.88;;;0.70;;
27925;SDS011;15267;47.838;12.128;2023-04-24T09:46:36;1.38;;;0.65;;
27925;SDS011;15267;47.838;12.128;2023-04-24T09:49:08;1.30;;;0.90;;
27925;SDS011;15267;47.838;12.128;2023-04-24T09:51:36;2.00;;;0.68;;
27925;SDS011;15267;47.838;12.128;2023-04-24T09:54:11;1.10;;;0.80;;
27925;SDS011;15267;47.838;12.128;2023-04-24T09:56:39;2.90;;;0.98;;
27925;SDS011;15267;47.838;12.128;2023-04-24T09:59:08;1.42;;;1.00;;
27925;SDS011;15267;47.838;12.128;2023-04-24T10:01:34;1.23;;;0.70;;
27925;SDS011;15267;47.838;12.128;2023-04-24T10:04:00;1.15;;;0.73;;
27925;SDS011;15267;47.838;12.128;2023-04-24T10:06:31;5.38;;;0.95;;
27925;SDS011;15267;47.838;12.128;2023-04-24T10:08:57;1.17;;;0.63;;
27925;SDS011;15267;47.838;12.128;2023-04-24T10:11:23;3.30;;;0.75;;
27925;SDS011;15267;47.838;12.128;2023-04-24T10:13:49;1.65;;;0.90;;
27925;SDS011;15267;47.838;12.128;2023-04-24T10:16:16;1.60;;;0.90;;
27925;SDS011;15267;47.838;12.128;2023-04-24T10:18:42;1.88;;;0.80;;
27925;SDS011;15267;47.838;12.128;2023-04-24T10:21:08;2.05;;;0.80;;
27925;SDS011;15267;47.838;12.128;2023-04-24T10:23:34;1.05;;;0.73;;
27925;SDS011;15267;47.838;12.128;2023-04-24T10:26:01;2.20;;;0.60;;
27925;SDS011;15267;47.838;12.128;2023-04-24T10:28:27;1.08;;;0.70;;
27925;SDS011;15267;47.838;12.128;2023-04-24T10:30:53;4.00;;;0.90;;
27925;SDS011;15267;47.838;12.128;2023-04-24T10:33:20;2.08;;;1.10;;
27925;SDS011;15267;47.838;12.128;2023-04-24T10:35:46;2.17;;;0.88;;
27925;SDS011;15267;47.838;12.128;2023-04-24T10:38:15;3.78;;;0.80;;
27925;SDS011;15267;47.838;12.128;2023-04-24T10:40:42;2.33;;;1.00;;
27925;SDS011;15267;47.838;12.128;2023-04-24T10:43:09;2.92;;;1.05;;
27925;SDS011;15267;47.838;12.128;2023-04-24T10:45:36;2.15;;;1.25;;
27925;SDS011;15267;47.838;12.128;2023-04-24T10:48:03;1.00;;;0.80;;
27925;SDS011;15267;47.838;12.128;2023-04-24T10:50:46;3.33;;;0.90;;
27925;SDS011;15267;47.838;12.128;2023-04-24T10:53:19;0.90;;;0.75;;
27925;SDS011;15267;47.838;12.128;2023-04-24T10:58:12;2.28;;;0.90;;
27925;SDS011;15267;47.838;12.128;2023-04-24T11:00:39;1.95;;;0.80;;
27925;SDS011;15267;47.838;12.128;2023-04-24T11:03:06;1.08;;;0.70;;
27925;SDS011;15267;47.838;12.128;2023-04-24T11:05:49;1.10;;;0.80;;
27925;SDS011;15267;47.838;12.128;2023-04-24T11:08:16;1.02;;;0.90;;
27925;SDS011;15267;47.838;12.128;2023-04-24T11:10:55;3.13;;;1.33;;
27925;SDS011;15267;47.838;12.128;2023-04-24T11:13:22;1.58;;;0.90;;
27925;SDS011;15267;47.838;12.128;2023-04-24T11:18:39;1.75;;;1.13;;
27925;SDS011;15267;47.838;12.128;2023-04-24T11:21:10;2.63;;;0.90;;
27925;SDS011;15267;47.838;12.128;2023-04-24T11:23:37;3.08;;;1.00;;
27925;SDS011;15267;47.838;12.128;2023-04-24T11:26:09;1.92;;;0.80;;
27925;SDS011;15267;47.838;12.128;2023-04-24T11:28:36;4.13;;;0.85;;
27925;SDS011;15267;47.838;12.128;2023-04-24T11:33:47;2.28;;;1.00;;
27925;SDS011;15267;47.838;12.128;2023-04-24T11:36:13;0.98;;;0.80;;
27925;SDS011;15267;47.838;12.128;2023-04-24T11:38:39;3.30;;;1.30;;
27925;SDS011;15267;47.838;12.128;2023-04-24T11:41:05;1.52;;;0.90;;
27925;SDS011;15267;47.838;12.128;2023-04-24T11:43:32;0.88;;;0.80;;
27925;SDS011;15267;47.838;12.128;2023-04-24T11:45:59;5.45;;;1.02;;
27925;SDS011;15267;47.838;12.128;2023-04-24T11:48:25;1.50;;;1.10;;
27925;SDS011;15267;47.838;12.128;2023-04-24T11:50:51;2.50;;;1.17;;
27925;SDS011;15267;47.838;12.128;2023-04-24T11:53:18;1.88;;;1.00;;
27925;SDS011;15267;47.838;12.128;2023-04-24T11:55:45;2.08;;;0.95;;
27925;SDS011;15267;47.838;12.128;2023-04-24T11:58:11;3.13;;;0.90;;
27925;SDS011;15267;47.838;12.128;2023-04-24T12:00:37;2.35;;;1.00;;
27925;SDS011;15267;47.838;12.128;2023-04-24T12:03:07;4.68;;;1.00;;
27925;SDS011;15267;47.838;12.128;2023-04-24T12:05:33;2.70;;;0.90;;
27925;SDS011;15267;47.838;12.128;2023-04-24T12:07:59;1.27;;;1.00;;
27925;SDS011;15267;47.838;12.128;2023-04-24T12:10:27;1.92;;;1.00;;
27925;SDS011;15267;47.838;12.128;2023-04-24T12:12:53;2.47;;;0.93;;
27925;SDS011;15267;47.838;12.128;2023-04-24T12:15:20;0.73;;;0.70;;
27925;SDS011;15267;47.838;12.128;2023-04-24T12:17:47;0.82;;;0.50;;
27925;SDS011;15267;47.838;12.128;2023-04-24T12:20:14;1.00;;;0.80;;
27925;SDS011;15267;47.838;12.128;2023-04-24T12:22:46;0.70;;;0.65;;
27925;SDS011;15267;47.838;12.128;2023-04-24T12:25:14;0.90;;;0.70;;
27925;SDS011;15267;47.838;12.128;2023-04-24T12:27:40;1.48;;;0.77;;
27925;SDS011;15267;47.838;12.128;2023-04-24T12:30:09;1.73;;;0.95;;
27925;SDS011;15267;47.838;12.128;2023-04-24T12:32:40;1.63;;;0.90;;
27925;SDS011;15267;47.838;12.128;2023-04-24T12:35:06;1.95;;;0.90;;
27925;SDS011;15267;47.838;12.128;2023-04-24T12:37:33;1.35;;;0.60;;
27925;SDS011;15267;47.838;12.128;2023-04-24T12:40:02;1.17;;;0.73;;
27925;SDS011;15267;47.838;12.128;2023-04-24T12:42:28;0.90;;;0.70;;
27925;SDS011;15267;47.838;12.128;2023-04-24T12:44:58;1.38;;;0.82;;
27925;SDS011;15267;47.838;12.128;2023-04-24T12:47:25;1.17;;;0.70;;
27925;SDS011;15267;47.838;12.128;2023-04-24T12:49:51;0.93;;;0.93;;
27925;SDS011;15267;47.838;12.128;2023-04-24T12:52:24;1.65;;;0.75;;
27925;SDS011;15267;47.838;12.128;2023-04-24T12:54:51;1.73;;;1.00;;
27925;SDS011;15267;47.838;12.128;2023-04-24T12:57:18;1.48;;;0.80;;
27925;SDS011;15267;47.838;12.128;2023-04-24T12:59:44;2.42;;;0.82;;
27925;SDS011;15267;47.838;12.128;2023-04-24T13:02:10;1.00;;;0.90;;
27925;SDS011;15267;47.838;12.128;2023-04-24T13:04:36;2.22;;;1.10;;
27925;SDS011;15267;47.838;12.128;2023-04-24T13:07:02;1.80;;;1.00;;
27925;SDS011;15267;47.838;12.128;2023-04-24T13:09:29;1.27;;;0.80;;
27925;SDS011;15267;47.838;12.128;2023-04-24T13:11:55;2.13;;;0.90;;
27925;SDS011;15267;47.838;12.128;2023-04-24T13:14:22;2.90;;;1.05;;
27925;SDS011;15267;47.838;12.128;2023-04-24T13:16:48;1.85;;;1.00;;
27925;SDS011;15267;47.838;12.128;2023-04-24T13:19:14;1.73;;;0.80;;
27925;SDS011;15267;47.838;12.128;2023-04-24T13:21:40;2.25;;;0.80;;
27925;SDS011;15267;47.838;12.128;2023-04-24T13:24:06;1.60;;;0.80;;
27925;SDS011;15267;47.838;12.128;2023-04-24T13:26:32;2.75;;;1.10;;
27925;SDS011;15267;47.838;12.128;2023-04-24T13:28:58;3.13;;;1.00;;
27925;SDS011;15267;47.838;12.128;2023-04-24T13:31:24;4.55;;;1.00;;
27925;SDS011;15267;47.838;12.128;2023-04-24T13:33:50;1.58;;;0.90;;
27925;SDS011;15267;47.838;12.128;2023-04-24T13:36:16;3.20;;;0.93;;
27925;SDS011;15267;47.838;12.128;2023-04-24T13:38:43;1.35;;;0.80;;
27925;SDS011;15267;47.838;12.128;2023-04-24T13:41:10;4.78;;;1.17;;
27925;SDS011;15267;47.838;12.128;2023-04-24T13:43:36;2.47;;;0.70;;
27925;SDS011;15267;47.838;12.128;2023-04-24T13:46:02;1.90;;;0.98;;
27925;SDS011;15267;47.838;12.128;2023-04-24T13:48:28;2.55;;;0.90;;
27925;SDS011;15267;47.838;12.128;2023-04-24T13:50:54;2.20;;;1.10;;
27925;SDS011;15267;47.838;12.128;2023-04-24T13:53:20;1.38;;;0.90;;
27925;SDS011;15267;47.838;12.128;2023-04-24T13:55:46;1.63;;;0.88;;
27925;SDS011;15267;47.838;12.128;2023-04-24T13:58:12;3.70;;;0.90;;
27925;SDS011;15267;47.838;12.128;2023-04-24T14:00:38;1.00;;;0.90;;
27925;SDS011;15267;47.838;12.128;2023-04-24T14:03:04;1.48;;;0.80;;
27925;SDS011;15267;47.838;12.128;2023-04-24T14:05:30;2.03;;;0.90;;
27925;SDS011;15267;47.838;12.128;2023-04-24T14:07:56;2.05;;;1.00;;
27925;SDS011;15267;47.838;12.128;2023-04-24T14:10:22;1.98;;;1.10;;
27925;SDS011;15267;47.838;12.128;2023-04-24T14:12:48;2.58;;;1.45;;
27925;SDS011;15267;47.838;12.128;2023-04-24T14:15:14;1.42;;;0.63;;
27925;SDS011;15267;47.838;12.128;2023-04-24T14:17:40;1.10;;;1.00;;
27925;SDS011;15267;47.838;12.128;2023-04-24T14:20:06;1.95;;;1.10;;
27925;SDS011;15267;47.838;12.128;2023-04-24T14:22:33;2.88;;;1.10;;
27925;SDS011;15267;47.838;12.128;2023-04-24T14:25:00;1.60;;;1.05;;
27925;SDS011;15267;47.838;12.128;2023-04-24T14:27:25;2.03;;;0.90;;
27925;SDS011;15267;47.838;12.128;2023-04-24T14:29:52;1.55;;;1.17;;
27925;SDS011;15267;47.838;12.128;2023-04-24T14:32:18;1.63;;;1.00;;
27925;SDS011;15267;47.838;12.128;2023-04-24T14:34:43;3.40;;;1.23;;
27925;SDS011;15267;47.838;12.128;2023-04-24T14:37:09;1.55;;;1.23;;